sensor_id;sensor_type;location;lat;lon;timestamp;temperature;humidity
46590;DHT22;32313;48.722;9.362;2022-07-01T00:02:20;13.10;99.90
46590;DHT22;32313;48.722;9.362;2022-07-01T00:04:46;13.00;99.90
46590;DHT22;32313;48.722;9.362;2022-07-01T00:07:30;12.90;99.90
46590;DHT22;32313;48.722;9.362;2022-07-01T00:09:56;12.90;99.90
46590;DHT22;32313;48.722;9.362;2022-07-01T00:12:22;12.90;99.90
46590;DHT22;32313;48.722;9.362;2022-07-01T00:14:48;12.90;99.90
46590;DHT22;32313;48.722;9.362;2022-07-01T00:17:16;12.90;99.90
46590;DHT22;32313;48.722;9.362;2022-07-01T00:19:42;12.90;99.90
46590;DHT22;32313;48.722;9.362;2022-07-01T00:22:08;12.80;99.90
46590;DHT22;32313;48.722;9.362;2022-07-01T00:24:33;12.90;99.90
46590;DHT22;32313;48.722;9.362;2022-07-01T00:26:59;12.90;99.90
46590;DHT22;32313;48.722;9.362;2022-07-01T00:29:25;12.90;99.90
46590;DHT22;32313;48.722;9.362;2022-07-01T00:31:51;12.90;99.90
46590;DHT22;32313;48.722;9.362;2022-07-01T00:34:16;12.90;99.90
46590;DHT22;32313;48.722;9.362;2022-07-01T00:36:42;12.90;99.90
46590;DHT22;32313;48.722;9.362;2022-07-01T00:39:08;12.90;99.90
46590;DHT22;32313;48.722;9.362;2022-07-01T00:41:34;12.90;99.90
46590;DHT22;32313;48.722;9.362;2022-07-01T00:44:00;12.90;99.90
46590;DHT22;32313;48.722;9.362;2022-07-01T00:46:26;13.00;99.90
46590;DHT22;32313;48.722;9.362;2022-07-01T00:48:54;13.00;99.90
46590;DHT22;32313;48.722;9.362;2022-07-01T00:51:22;13.00;99.90
46590;DHT22;32313;48.722;9.362;2022-07-01T00:53:48;13.00;99.90
46590;DHT22;32313;48.722;9.362;2022-07-01T00:56:14;13.00;99.90
46590;DHT22;32313;48.722;9.362;2022-07-01T00:58:40;13.00;99.90
46590;DHT22;32313;48.722;9.362;2022-07-01T01:01:06;13.00;99.90
46590;DHT22;32313;48.722;9.362;2022-07-01T01:03:31;13.00;99.90
46590;DHT22;32313;48.722;9.362;2022-07-01T01:05:57;13.00;99.90
46590;DHT22;32313;48.722;9.362;2022-07-01T01:08:24;13.00;99.90
46590;DHT22;32313;48.722;9.362;2022-07-01T01:10:51;13.00;99.90
46590;DHT22;32313;48.722;9.362;2022-07-01T01:13:18;13.00;99.90
46590;DHT22;32313;48.722;9.362;2022-07-01T01:15:43;13.00;99.90
46590;DHT22;32313;48.722;9.362;2022-07-01T01:18:09;13.00;99.90
46590;DHT22;32313;48.722;9.362;2022-07-01T01:20:36;13.00;99.90
46590;DHT22;32313;48.722;9.362;2022-07-01T01:23:02;13.00;99.90
46590;DHT22;32313;48.722;9.362;2022-07-01T01:25:30;13.00;99.90
46590;DHT22;32313;48.722;9.362;2022-07-01T01:27:59;13.00;99.90
46590;DHT22;32313;48.722;9.362;2022-07-01T01:30:25;12.90;99.90
46590;DHT22;32313;48.722;9.362;2022-07-01T01:32:51;12.90;99.90
46590;DHT22;32313;48.722;9.362;2022-07-01T01:35:19;12.80;99.90
46590;DHT22;32313;48.722;9.362;2022-07-01T01:37:45;12.80;99.90
46590;DHT22;32313;48.722;9.362;2022-07-01T01:40:11;12.70;99.90
46590;DHT22;32313;48.722;9.362;2022-07-01T01:42:39;12.70;99.90
46590;DHT22;32313;48.722;9.362;2022-07-01T01:45:06;12.70;99.90
46590;DHT22;32313;48.722;9.362;2022-07-01T01:47:31;12.60;99.90
46590;DHT22;32313;48.722;9.362;2022-07-01T01:49:57;12.60;99.90
46590;DHT22;32313;48.722;9.362;2022-07-01T01:52:23;12.60;99.90
46590;DHT22;32313;48.722;9.362;2022-07-01T01:54:49;12.60;99.90
46590;DHT22;32313;48.722;9.362;2022-07-01T01:57:16;12.60;99.90
46590;DHT22;32313;48.722;9.362;2022-07-01T01:59:41;12.60;99.90
46590;DHT22;32313;48.722;9.362;2022-07-01T02:02:07;12.60;99.90
46590;DHT22;32313;48.722;9.362;2022-07-01T02:04:33;12.60;99.90
46590;DHT22;32313;48.722;9.362;2022-07-01T02:06:59;12.60;99.90
46590;DHT22;32313;48.722;9.362;2022-07-01T02:09:25;12.60;99.90
46590;DHT22;32313;48.722;9.362;2022-07-01T02:11:51;12.60;99.90
46590;DHT22;32313;48.722;9.362;2022-07-01T02:14:18;12.60;99.90
46590;DHT22;32313;48.722;9.362;2022-07-01T02:16:43;12.60;99.90
46590;DHT22;32313;48.722;9.362;2022-07-01T02:19:09;12.50;99.90
46590;DHT22;32313;48.722;9.362;2022-07-01T02:21:35;12.50;99.90
46590;DHT22;32313;48.722;9.362;2022-07-01T02:24:00;12.50;99.90
46590;DHT22;32313;48.722;9.362;2022-07-01T02:26:26;12.50;99.90
46590;DHT22;32313;48.722;9.362;2022-07-01T02:28:52;12.50;99.90
46590;DHT22;32313;48.722;9.362;2022-07-01T02:31:18;12.50;99.90
46590;DHT22;32313;48.722;9.362;2022-07-01T02:33:43;12.50;99.90
46590;DHT22;32313;48.722;9.362;2022-07-01T02:36:09;12.60;99.90
46590;DHT22;32313;48.722;9.362;2022-07-01T02:38:35;12.60;99.90
46590;DHT22;32313;48.722;9.362;2022-07-01T02:41:01;12.60;99.90
46590;DHT22;32313;48.722;9.362;2022-07-01T02:43:26;12.70;99.90
46590;DHT22;32313;48.722;9.362;2022-07-01T02:45:52;12.70;99.90
46590;DHT22;32313;48.722;9.362;2022-07-01T02:48:18;12.80;99.90
46590;DHT22;32313;48.722;9.362;2022-07-01T02:50:43;12.80;99.90
46590;DHT22;32313;48.722;9.362;2022-07-01T02:53:09;12.80;99.90
46590;DHT22;32313;48.722;9.362;2022-07-01T02:55:35;12.80;99.90
46590;DHT22;32313;48.722;9.362;2022-07-01T02:58:01;12.80;99.90
46590;DHT22;32313;48.722;9.362;2022-07-01T03:00:29;12.80;99.90
46590;DHT22;32313;48.722;9.362;2022-07-01T03:02:55;12.80;99.90
46590;DHT22;32313;48.722;9.362;2022-07-01T03:05:21;12.80;99.90
46590;DHT22;32313;48.722;9.362;2022-07-01T03:07:47;12.80;99.90
46590;DHT22;32313;48.722;9.362;2022-07-01T03:10:13;12.80;99.90
46590;DHT22;32313;48.722;9.362;2022-07-01T03:12:39;12.90;99.90
46590;DHT22;32313;48.722;9.362;2022-07-01T03:15:10;12.90;99.90
46590;DHT22;32313;48.722;9.362;2022-07-01T03:17:37;12.90;99.90
46590;DHT22;32313;48.722;9.362;2022-07-01T03:20:05;12.90;99.90
46590;DHT22;32313;48.722;9.362;2022-07-01T03:22:32;12.90;99.90
46590;DHT22;32313;48.722;9.362;2022-07-01T03:24:58;12.90;99.90
46590;DHT22;32313;48.722;9.362;2022-07-01T03:27:24;12.90;99.90
46590;DHT22;32313;48.722;9.362;2022-07-01T03:29:51;12.90;99.90
46590;DHT22;32313;48.722;9.362;2022-07-01T03:32:17;12.90;99.90
46590;DHT22;32313;48.722;9.362;2022-07-01T03:34:49;12.90;99.90
46590;DHT22;32313;48.722;9.362;2022-07-01T03:37:16;12.90;99.90
46590;DHT22;32313;48.722;9.362;2022-07-01T03:39:43;12.90;99.90
46590;DHT22;32313;48.722;9.362;2022-07-01T03:42:09;12.90;99.90
46590;DHT22;32313;48.722;9.362;2022-07-01T03:44:35;12.90;99.90
46590;DHT22;32313;48.722;9.362;2022-07-01T03:47:02;12.90;99.90
46590;DHT22;32313;48.722;9.362;2022-07-01T03:49:28;12.90;99.90
46590;DHT22;32313;48.722;9.362;2022-07-01T03:51:54;12.90;99.90
46590;DHT22;32313;48.722;9.362;2022-07-01T03:54:20;13.00;99.90
46590;DHT22;32313;48.722;9.362;2022-07-01T03:59:38;13.00;99.90
46590;DHT22;32313;48.722;9.362;2022-07-01T04:02:05;13.00;99.90
46590;DHT22;32313;48.722;9.362;2022-07-01T04:04:34;12.90;99.90
46590;DHT22;32313;48.722;9.362;2022-07-01T04:07:03;12.90;99.90
46590;DHT22;32313;48.722;9.362;2022-07-01T04:09:30;12.90;99.90
46590;DHT22;32313;48.722;9.362;2022-07-01T04:11:57;12.90;99.90
46590;DHT22;32313;48.722;9.362;2022-07-01T04:14:23;12.90;99.90
46590;DHT22;32313;48.722;9.362;2022-07-01T04:16:52;12.90;99.90
46590;DHT22;32313;48.722;9.362;2022-07-01T04:19:19;12.90;99.90
46590;DHT22;32313;48.722;9.362;2022-07-01T04:21:45;12.90;99.90
46590;DHT22;32313;48.722;9.362;2022-07-01T04:24:30;12.90;99.90
46590;DHT22;32313;48.722;9.362;2022-07-01T04:26:58;12.90;99.90
46590;DHT22;32313;48.722;9.362;2022-07-01T04:29:24;12.80;99.90
46590;DHT22;32313;48.722;9.362;2022-07-01T04:31:50;12.80;99.90
46590;DHT22;32313;48.722;9.362;2022-07-01T04:34:16;12.80;99.90
46590;DHT22;32313;48.722;9.362;2022-07-01T04:36:42;12.80;99.90
46590;DHT22;32313;48.722;9.362;2022-07-01T04:39:08;12.80;99.90
46590;DHT22;32313;48.722;9.362;2022-07-01T04:41:33;12.80;99.90
46590;DHT22;32313;48.722;9.362;2022-07-01T04:44:21;12.80;99.90
46590;DHT22;32313;48.722;9.362;2022-07-01T04:46:46;12.80;99.90
46590;DHT22;32313;48.722;9.362;2022-07-01T04:49:12;12.80;99.90
46590;DHT22;32313;48.722;9.362;2022-07-01T04:51:38;12.80;99.90
46590;DHT22;32313;48.722;9.362;2022-07-01T04:54:04;12.80;99.90
46590;DHT22;32313;48.722;9.362;2022-07-01T04:56:32;12.80;99.90
46590;DHT22;32313;48.722;9.362;2022-07-01T04:58:59;12.80;99.90
46590;DHT22;32313;48.722;9.362;2022-07-01T05:01:25;12.80;99.90
46590;DHT22;32313;48.722;9.362;2022-07-01T05:03:52;12.80;99.90
46590;DHT22;32313;48.722;9.362;2022-07-01T05:06:18;12.80;99.90
46590;DHT22;32313;48.722;9.362;2022-07-01T05:08:43;12.80;99.90
46590;DHT22;32313;48.722;9.362;2022-07-01T05:11:09;12.80;99.90
46590;DHT22;32313;48.722;9.362;2022-07-01T05:13:35;12.80;99.90
46590;DHT22;32313;48.722;9.362;2022-07-01T05:16:01;12.80;99.90
46590;DHT22;32313;48.722;9.362;2022-07-01T05:18:27;12.80;99.90
46590;DHT22;32313;48.722;9.362;2022-07-01T05:21:11;12.80;99.90
46590;DHT22;32313;48.722;9.362;2022-07-01T05:23:56;12.80;99.90
46590;DHT22;32313;48.722;9.362;2022-07-01T05:26:21;12.80;99.90
46590;DHT22;32313;48.722;9.362;2022-07-01T05:28:48;12.70;99.90
46590;DHT22;32313;48.722;9.362;2022-07-01T05:31:14;12.70;99.90
46590;DHT22;32313;48.722;9.362;2022-07-01T05:33:39;12.70;99.90
46590;DHT22;32313;48.722;9.362;2022-07-01T05:36:05;12.70;99.90
46590;DHT22;32313;48.722;9.362;2022-07-01T05:38:31;12.70;99.90
46590;DHT22;32313;48.722;9.362;2022-07-01T05:40:57;12.70;99.90
46590;DHT22;32313;48.722;9.362;2022-07-01T05:43:25;12.70;99.90
46590;DHT22;32313;48.722;9.362;2022-07-01T05:45:51;12.70;99.90
46590;DHT22;32313;48.722;9.362;2022-07-01T05:48:16;12.70;99.90
46590;DHT22;32313;48.722;9.362;2022-07-01T05:50:42;12.70;99.90
46590;DHT22;32313;48.722;9.362;2022-07-01T05:53:11;12.70;99.90
46590;DHT22;32313;48.722;9.362;2022-07-01T05:55:37;12.70;99.90
46590;DHT22;32313;48.722;9.362;2022-07-01T05:58:02;12.80;99.90
46590;DHT22;32313;48.722;9.362;2022-07-01T06:00:28;12.70;99.90
46590;DHT22;32313;48.722;9.362;2022-07-01T06:02:54;12.70;99.90
46590;DHT22;32313;48.722;9.362;2022-07-01T06:05:20;12.70;99.90
46590;DHT22;32313;48.722;9.362;2022-07-01T06:07:46;12.70;99.90
46590;DHT22;32313;48.722;9.362;2022-07-01T06:10:12;12.80;99.90
46590;DHT22;32313;48.722;9.362;2022-07-01T06:12:38;12.80;99.90
46590;DHT22;32313;48.722;9.362;2022-07-01T06:15:06;12.70;99.90
46590;DHT22;32313;48.722;9.362;2022-07-01T06:17:37;12.70;99.90
46590;DHT22;32313;48.722;9.362;2022-07-01T06:20:03;12.70;99.90
46590;DHT22;32313;48.722;9.362;2022-07-01T06:22:30;12.70;99.90
46590;DHT22;32313;48.722;9.362;2022-07-01T06:24:55;12.70;99.90
46590;DHT22;32313;48.722;9.362;2022-07-01T06:27:21;12.70;99.90
46590;DHT22;32313;48.722;9.362;2022-07-01T06:29:47;12.80;99.90
46590;DHT22;32313;48.722;9.362;2022-07-01T06:32:13;12.80;99.90
46590;DHT22;32313;48.722;9.362;2022-07-01T06:34:39;12.80;99.90
46590;DHT22;32313;48.722;9.362;2022-07-01T06:37:04;12.90;99.90
46590;DHT22;32313;48.722;9.362;2022-07-01T06:39:30;12.90;99.90
46590;DHT22;32313;48.722;9.362;2022-07-01T06:41:56;12.90;99.90
46590;DHT22;32313;48.722;9.362;2022-07-01T06:44:22;12.90;99.90
46590;DHT22;32313;48.722;9.362;2022-07-01T06:46:48;13.00;99.90
46590;DHT22;32313;48.722;9.362;2022-07-01T06:49:14;13.00;99.90
46590;DHT22;32313;48.722;9.362;2022-07-01T06:51:40;13.10;99.90
46590;DHT22;32313;48.722;9.362;2022-07-01T06:54:05;13.10;99.90
46590;DHT22;32313;48.722;9.362;2022-07-01T06:56:31;13.20;99.90
46590;DHT22;32313;48.722;9.362;2022-07-01T06:58:57;13.20;99.90
46590;DHT22;32313;48.722;9.362;2022-07-01T07:01:23;13.20;99.90
46590;DHT22;32313;48.722;9.362;2022-07-01T07:03:49;13.20;99.90
46590;DHT22;32313;48.722;9.362;2022-07-01T07:06:15;13.20;99.90
46590;DHT22;32313;48.722;9.362;2022-07-01T07:08:41;13.20;99.90
46590;DHT22;32313;48.722;9.362;2022-07-01T07:11:06;13.20;99.90
46590;DHT22;32313;48.722;9.362;2022-07-01T07:13:37;13.20;99.90
46590;DHT22;32313;48.722;9.362;2022-07-01T07:16:03;13.20;99.90
46590;DHT22;32313;48.722;9.362;2022-07-01T07:18:29;13.20;99.90
46590;DHT22;32313;48.722;9.362;2022-07-01T07:20:55;13.20;99.90
46590;DHT22;32313;48.722;9.362;2022-07-01T07:23:21;13.20;99.90
46590;DHT22;32313;48.722;9.362;2022-07-01T07:25:48;13.20;99.90
46590;DHT22;32313;48.722;9.362;2022-07-01T07:28:14;13.20;99.90
46590;DHT22;32313;48.722;9.362;2022-07-01T07:30:42;13.30;99.90
46590;DHT22;32313;48.722;9.362;2022-07-01T07:33:08;13.40;99.90
46590;DHT22;32313;48.722;9.362;2022-07-01T07:35:33;13.50;99.90
46590;DHT22;32313;48.722;9.362;2022-07-01T07:37:59;13.60;99.90
46590;DHT22;32313;48.722;9.362;2022-07-01T07:40:25;13.70;99.90
46590;DHT22;32313;48.722;9.362;2022-07-01T07:42:51;13.70;99.90
46590;DHT22;32313;48.722;9.362;2022-07-01T07:45:17;13.80;99.90
46590;DHT22;32313;48.722;9.362;2022-07-01T07:47:48;13.80;99.90
46590;DHT22;32313;48.722;9.362;2022-07-01T07:50:15;13.80;99.90
46590;DHT22;32313;48.722;9.362;2022-07-01T07:52:42;13.80;99.90
46590;DHT22;32313;48.722;9.362;2022-07-01T07:55:09;13.80;99.90
46590;DHT22;32313;48.722;9.362;2022-07-01T07:57:39;13.80;99.90
46590;DHT22;32313;48.722;9.362;2022-07-01T08:00:08;13.80;99.90
46590;DHT22;32313;48.722;9.362;2022-07-01T08:02:41;13.80;99.90
46590;DHT22;32313;48.722;9.362;2022-07-01T08:05:08;13.80;99.90
46590;DHT22;32313;48.722;9.362;2022-07-01T08:07:36;13.90;99.90
46590;DHT22;32313;48.722;9.362;2022-07-01T08:10:07;13.80;99.90
46590;DHT22;32313;48.722;9.362;2022-07-01T08:12:33;13.70;99.90
46590;DHT22;32313;48.722;9.362;2022-07-01T08:15:00;13.60;99.90
46590;DHT22;32313;48.722;9.362;2022-07-01T08:17:26;13.60;99.90
46590;DHT22;32313;48.722;9.362;2022-07-01T08:19:51;13.50;99.90
46590;DHT22;32313;48.722;9.362;2022-07-01T08:22:17;13.50;99.90
46590;DHT22;32313;48.722;9.362;2022-07-01T08:24:45;13.50;99.90
46590;DHT22;32313;48.722;9.362;2022-07-01T08:27:10;13.60;99.90
46590;DHT22;32313;48.722;9.362;2022-07-01T08:29:38;13.80;99.90
46590;DHT22;32313;48.722;9.362;2022-07-01T08:32:05;14.00;99.90
46590;DHT22;32313;48.722;9.362;2022-07-01T08:34:31;14.10;99.90
46590;DHT22;32313;48.722;9.362;2022-07-01T08:36:56;14.30;99.90
46590;DHT22;32313;48.722;9.362;2022-07-01T08:39:22;14.30;99.90
46590;DHT22;32313;48.722;9.362;2022-07-01T08:41:48;14.30;99.90
46590;DHT22;32313;48.722;9.362;2022-07-01T08:44:14;14.30;99.90
46590;DHT22;32313;48.722;9.362;2022-07-01T08:46:40;14.30;99.90
46590;DHT22;32313;48.722;9.362;2022-07-01T08:49:06;14.20;99.90
46590;DHT22;32313;48.722;9.362;2022-07-01T08:51:32;14.20;99.90
46590;DHT22;32313;48.722;9.362;2022-07-01T08:53:59;14.10;99.90
46590;DHT22;32313;48.722;9.362;2022-07-01T08:56:25;14.00;99.90
46590;DHT22;32313;48.722;9.362;2022-07-01T08:59:23;13.90;99.90
46590;DHT22;32313;48.722;9.362;2022-07-01T09:02:00;13.90;99.90
46590;DHT22;32313;48.722;9.362;2022-07-01T09:04:27;14.00;99.90
46590;DHT22;32313;48.722;9.362;2022-07-01T09:07:02;14.10;99.90
46590;DHT22;32313;48.722;9.362;2022-07-01T09:09:37;14.10;99.90
46590;DHT22;32313;48.722;9.362;2022-07-01T09:12:04;14.10;99.90
46590;DHT22;32313;48.722;9.362;2022-07-01T09:14:33;14.20;99.90
46590;DHT22;32313;48.722;9.362;2022-07-01T09:17:02;14.20;99.90
46590;DHT22;32313;48.722;9.362;2022-07-01T09:19:31;14.30;99.90
46590;DHT22;32313;48.722;9.362;2022-07-01T09:21:59;14.40;99.90
46590;DHT22;32313;48.722;9.362;2022-07-01T09:24:39;14.40;99.90
46590;DHT22;32313;48.722;9.362;2022-07-01T09:27:12;14.50;99.90
46590;DHT22;32313;48.722;9.362;2022-07-01T09:29:44;14.40;99.90
46590;DHT22;32313;48.722;9.362;2022-07-01T09:32:13;14.30;99.90
46590;DHT22;32313;48.722;9.362;2022-07-01T09:34:41;14.30;99.90
46590;DHT22;32313;48.722;9.362;2022-07-01T09:37:07;14.30;99.90
46590;DHT22;32313;48.722;9.362;2022-07-01T09:39:47;14.30;99.90
46590;DHT22;32313;48.722;9.362;2022-07-01T09:42:15;14.20;99.90
46590;DHT22;32313;48.722;9.362;2022-07-01T09:45:03;14.10;99.90
46590;DHT22;32313;48.722;9.362;2022-07-01T09:47:35;14.00;99.90
46590;DHT22;32313;48.722;9.362;2022-07-01T09:50:03;13.80;99.90
46590;DHT22;32313;48.722;9.362;2022-07-01T09:52:29;13.80;99.90
46590;DHT22;32313;48.722;9.362;2022-07-01T09:54:54;13.70;99.90
46590;DHT22;32313;48.722;9.362;2022-07-01T09:57:21;13.70;99.90
46590;DHT22;32313;48.722;9.362;2022-07-01T09:59:48;13.60;99.90
46590;DHT22;32313;48.722;9.362;2022-07-01T10:02:16;13.50;99.90
46590;DHT22;32313;48.722;9.362;2022-07-01T10:04:49;13.50;99.90
46590;DHT22;32313;48.722;9.362;2022-07-01T10:13:07;13.60;99.90
46590;DHT22;32313;48.722;9.362;2022-07-01T10:15:34;13.70;99.90
46590;DHT22;32313;48.722;9.362;2022-07-01T10:18:00;13.70;99.90
46590;DHT22;32313;48.722;9.362;2022-07-01T10:20:27;13.70;99.90
46590;DHT22;32313;48.722;9.362;2022-07-01T10:23:06;13.60;99.90
46590;DHT22;32313;48.722;9.362;2022-07-01T10:25:41;13.60;99.90
46590;DHT22;32313;48.722;9.362;2022-07-01T10:31:03;13.50;99.90
46590;DHT22;32313;48.722;9.362;2022-07-01T10:33:45;13.50;99.90
46590;DHT22;32313;48.722;9.362;2022-07-01T10:36:34;13.50;99.90
46590;DHT22;32313;48.722;9.362;2022-07-01T10:41:34;13.60;99.90
46590;DHT22;32313;48.722;9.362;2022-07-01T10:44:27;13.70;99.90
46590;DHT22;32313;48.722;9.362;2022-07-01T10:47:05;13.80;99.90
46590;DHT22;32313;48.722;9.362;2022-07-01T10:52:14;13.90;99.90
46590;DHT22;32313;48.722;9.362;2022-07-01T10:54:50;13.90;99.90
46590;DHT22;32313;48.722;9.362;2022-07-01T11:04:51;14.50;99.90
46590;DHT22;32313;48.722;9.362;2022-07-01T11:07:17;14.70;99.90
46590;DHT22;32313;48.722;9.362;2022-07-01T11:09:43;15.00;99.90
46590;DHT22;32313;48.722;9.362;2022-07-01T11:12:09;15.20;99.90
46590;DHT22;32313;48.722;9.362;2022-07-01T11:14:40;15.50;99.90
46590;DHT22;32313;48.722;9.362;2022-07-01T11:17:07;15.80;99.90
46590;DHT22;32313;48.722;9.362;2022-07-01T11:19:34;16.00;99.90
46590;DHT22;32313;48.722;9.362;2022-07-01T11:22:00;16.40;99.90
46590;DHT22;32313;48.722;9.362;2022-07-01T11:24:27;16.70;99.90
46590;DHT22;32313;48.722;9.362;2022-07-01T11:27:06;17.10;99.90
46590;DHT22;32313;48.722;9.362;2022-07-01T11:29:32;17.50;99.90
46590;DHT22;32313;48.722;9.362;2022-07-01T11:31:58;17.90;99.90
46590;DHT22;32313;48.722;9.362;2022-07-01T11:34:27;18.10;99.90
46590;DHT22;32313;48.722;9.362;2022-07-01T11:36:53;18.10;99.90
46590;DHT22;32313;48.722;9.362;2022-07-01T11:39:45;18.10;99.90
46590;DHT22;32313;48.722;9.362;2022-07-01T11:42:11;18.30;99.90
46590;DHT22;32313;48.722;9.362;2022-07-01T11:44:44;18.60;99.90
46590;DHT22;32313;48.722;9.362;2022-07-01T11:47:12;18.50;99.90
46590;DHT22;32313;48.722;9.362;2022-07-01T11:49:48;18.50;99.90
46590;DHT22;32313;48.722;9.362;2022-07-01T11:52:15;18.40;99.90
46590;DHT22;32313;48.722;9.362;2022-07-01T11:54:43;18.40;99.90
46590;DHT22;32313;48.722;9.362;2022-07-01T11:57:15;18.30;99.90
46590;DHT22;32313;48.722;9.362;2022-07-01T11:59:43;18.20;99.90
46590;DHT22;32313;48.722;9.362;2022-07-01T12:02:11;17.80;99.90
46590;DHT22;32313;48.722;9.362;2022-07-01T12:04:38;17.50;99.90
46590;DHT22;32313;48.722;9.362;2022-07-01T12:07:05;17.10;99.90
46590;DHT22;32313;48.722;9.362;2022-07-01T12:09:31;16.70;99.90
46590;DHT22;32313;48.722;9.362;2022-07-01T12:11:57;16.40;99.90
46590;DHT22;32313;48.722;9.362;2022-07-01T12:14:35;16.20;99.90
46590;DHT22;32313;48.722;9.362;2022-07-01T12:17:05;16.20;99.90
46590;DHT22;32313;48.722;9.362;2022-07-01T12:19:39;16.50;99.90
46590;DHT22;32313;48.722;9.362;2022-07-01T12:22:13;16.80;99.90
46590;DHT22;32313;48.722;9.362;2022-07-01T12:24:41;16.80;99.90
46590;DHT22;32313;48.722;9.362;2022-07-01T12:27:08;16.80;99.90
46590;DHT22;32313;48.722;9.362;2022-07-01T12:32:06;16.60;99.90
46590;DHT22;32313;48.722;9.362;2022-07-01T12:34:53;16.60;99.90
46590;DHT22;32313;48.722;9.362;2022-07-01T12:37:27;16.90;99.90
46590;DHT22;32313;48.722;9.362;2022-07-01T12:40:08;17.10;99.90
46590;DHT22;32313;48.722;9.362;2022-07-01T12:42:45;17.60;99.90
46590;DHT22;32313;48.722;9.362;2022-07-01T12:45:15;17.90;99.90
46590;DHT22;32313;48.722;9.362;2022-07-01T12:47:47;18.20;99.90
46590;DHT22;32313;48.722;9.362;2022-07-01T12:50:22;18.80;99.90
46590;DHT22;32313;48.722;9.362;2022-07-01T12:55:26;20.20;99.90
46590;DHT22;32313;48.722;9.362;2022-07-01T12:57:56;20.30;99.90
46590;DHT22;32313;48.722;9.362;2022-07-01T13:00:25;20.30;99.90
46590;DHT22;32313;48.722;9.362;2022-07-01T13:02:58;20.50;99.90
46590;DHT22;32313;48.722;9.362;2022-07-01T13:05:24;20.80;99.90
46590;DHT22;32313;48.722;9.362;2022-07-01T13:07:51;21.20;99.90
46590;DHT22;32313;48.722;9.362;2022-07-01T13:10:18;21.50;99.90
46590;DHT22;32313;48.722;9.362;2022-07-01T13:12:45;21.20;99.90
46590;DHT22;32313;48.722;9.362;2022-07-01T13:15:15;20.90;99.90
46590;DHT22;32313;48.722;9.362;2022-07-01T13:17:41;20.90;99.90
46590;DHT22;32313;48.722;9.362;2022-07-01T13:20:08;20.80;99.90
46590;DHT22;32313;48.722;9.362;2022-07-01T13:22:34;20.80;99.90
46590;DHT22;32313;48.722;9.362;2022-07-01T13:25:00;20.90;99.90
46590;DHT22;32313;48.722;9.362;2022-07-01T13:27:26;20.80;99.90
46590;DHT22;32313;48.722;9.362;2022-07-01T13:29:52;21.00;99.90
46590;DHT22;32313;48.722;9.362;2022-07-01T13:32:18;21.20;99.90
46590;DHT22;32313;48.722;9.362;2022-07-01T13:34:44;21.60;99.90
46590;DHT22;32313;48.722;9.362;2022-07-01T13:37:10;21.80;99.90
46590;DHT22;32313;48.722;9.362;2022-07-01T13:39:35;21.60;99.90
46590;DHT22;32313;48.722;9.362;2022-07-01T13:42:01;21.50;99.90
46590;DHT22;32313;48.722;9.362;2022-07-01T13:44:28;22.10;99.90
46590;DHT22;32313;48.722;9.362;2022-07-01T13:46:53;22.90;99.90
46590;DHT22;32313;48.722;9.362;2022-07-01T13:49:19;23.20;99.90
46590;DHT22;32313;48.722;9.362;2022-07-01T13:51:45;23.30;99.90
46590;DHT22;32313;48.722;9.362;2022-07-01T13:54:11;23.20;99.90
46590;DHT22;32313;48.722;9.362;2022-07-01T13:56:39;23.00;99.90
46590;DHT22;32313;48.722;9.362;2022-07-01T13:59:07;22.30;99.90
46590;DHT22;32313;48.722;9.362;2022-07-01T14:01:34;21.70;99.90
46590;DHT22;32313;48.722;9.362;2022-07-01T14:04:01;21.60;99.90
46590;DHT22;32313;48.722;9.362;2022-07-01T14:06:26;21.90;99.90
46590;DHT22;32313;48.722;9.362;2022-07-01T14:08:52;22.80;99.90
46590;DHT22;32313;48.722;9.362;2022-07-01T14:11:18;23.40;99.90
46590;DHT22;32313;48.722;9.362;2022-07-01T14:13:44;23.80;99.90
46590;DHT22;32313;48.722;9.362;2022-07-01T14:16:10;24.10;99.90
46590;DHT22;32313;48.722;9.362;2022-07-01T14:18:36;24.10;99.90
46590;DHT22;32313;48.722;9.362;2022-07-01T14:21:03;24.40;99.90
46590;DHT22;32313;48.722;9.362;2022-07-01T14:23:30;24.80;99.90
46590;DHT22;32313;48.722;9.362;2022-07-01T14:25:56;24.90;99.90
46590;DHT22;32313;48.722;9.362;2022-07-01T14:28:22;25.10;99.90
46590;DHT22;32313;48.722;9.362;2022-07-01T14:30:48;25.30;99.90
46590;DHT22;32313;48.722;9.362;2022-07-01T14:33:15;25.00;99.90
46590;DHT22;32313;48.722;9.362;2022-07-01T14:35:43;24.60;99.90
46590;DHT22;32313;48.722;9.362;2022-07-01T14:38:08;24.30;99.90
46590;DHT22;32313;48.722;9.362;2022-07-01T14:40:35;24.70;99.90
46590;DHT22;32313;48.722;9.362;2022-07-01T14:43:02;24.90;99.90
46590;DHT22;32313;48.722;9.362;2022-07-01T14:45:28;24.90;99.90
46590;DHT22;32313;48.722;9.362;2022-07-01T14:47:54;24.80;99.90
46590;DHT22;32313;48.722;9.362;2022-07-01T14:50:20;24.80;99.90
46590;DHT22;32313;48.722;9.362;2022-07-01T14:52:46;25.00;99.90
46590;DHT22;32313;48.722;9.362;2022-07-01T14:55:12;25.00;99.90
46590;DHT22;32313;48.722;9.362;2022-07-01T14:57:38;25.60;99.90
46590;DHT22;32313;48.722;9.362;2022-07-01T15:00:05;25.60;99.90
46590;DHT22;32313;48.722;9.362;2022-07-01T15:02:31;25.60;99.90
46590;DHT22;32313;48.722;9.362;2022-07-01T15:04:57;25.50;99.90
46590;DHT22;32313;48.722;9.362;2022-07-01T15:07:23;25.10;99.90
46590;DHT22;32313;48.722;9.362;2022-07-01T15:09:53;24.40;99.90
46590;DHT22;32313;48.722;9.362;2022-07-01T15:12:22;24.20;99.90
46590;DHT22;32313;48.722;9.362;2022-07-01T15:14:48;23.80;99.90
46590;DHT22;32313;48.722;9.362;2022-07-01T15:17:14;23.90;99.90
46590;DHT22;32313;48.722;9.362;2022-07-01T15:19:40;24.10;99.90
46590;DHT22;32313;48.722;9.362;2022-07-01T15:22:07;24.10;99.90
46590;DHT22;32313;48.722;9.362;2022-07-01T15:24:37;24.50;99.90
46590;DHT22;32313;48.722;9.362;2022-07-01T15:27:03;24.20;99.90
46590;DHT22;32313;48.722;9.362;2022-07-01T15:29:30;24.10;99.90
46590;DHT22;32313;48.722;9.362;2022-07-01T15:31:56;24.30;99.90
46590;DHT22;32313;48.722;9.362;2022-07-01T15:34:22;24.40;99.90
46590;DHT22;32313;48.722;9.362;2022-07-01T15:36:48;24.60;99.90
46590;DHT22;32313;48.722;9.362;2022-07-01T15:39:14;24.60;99.90
46590;DHT22;32313;48.722;9.362;2022-07-01T15:41:40;24.90;99.90
46590;DHT22;32313;48.722;9.362;2022-07-01T15:44:07;25.30;99.90
46590;DHT22;32313;48.722;9.362;2022-07-01T15:46:33;25.20;99.90
46590;DHT22;32313;48.722;9.362;2022-07-01T15:49:00;24.80;99.90
46590;DHT22;32313;48.722;9.362;2022-07-01T15:51:27;24.70;99.90
46590;DHT22;32313;48.722;9.362;2022-07-01T15:53:54;24.50;99.90
46590;DHT22;32313;48.722;9.362;2022-07-01T15:56:24;23.70;99.90
46590;DHT22;32313;48.722;9.362;2022-07-01T15:58:50;23.20;99.90
46590;DHT22;32313;48.722;9.362;2022-07-01T16:01:17;23.40;99.90
46590;DHT22;32313;48.722;9.362;2022-07-01T16:03:50;24.00;99.90